Impacts TAF Board
For situational awareness. Not to be used for flight planning purposes.
IDs:

KGPT - Gulfport-Biloxi Intl, MS, US

Issued at 0545 UTC 22 Jan 2021
Updated at 0711 UTC 22 Jan 2021
Potential Impact None Slight Moderate High
Time<<22/20Z 22/21Z 22/22Z 22/23Z 23/00Z 23/01Z 23/02Z 23/03Z 23/04Z 23/05Z 23/06Z 23/07Z 23/08Z>>
Type PRVL PRVL
  [TEMP]  
PRVL
  [TEMP]  
PRVL
  [TEMP]  
PRVL PRVL PRVL PRVL PRVL PRVL
VIS 5 5
  [2]  
5
  [2]  
5
  [2]  
5 5 5 5 5 5
CIG 3 3
  [4]  
3
  [4]  
3
  [4]  
3 3 3 3 3 3
Cover OVC OVC
  [OVC]  
OVC
  [OVC]  
OVC
  [OVC]  
OVC OVC OVC OVC OVC OVC
FltCat LIFR LIFR
  [LIFR]  
LIFR
  [LIFR]  
LIFR
  [LIFR]  
LIFR LIFR LIFR LIFR LIFR LIFR
WX -SHRA BR -SHRA BR
  [-RA]  
-SHRA BR
  [-RA]  
-SHRA BR
  [-RA]  
-SHRA BR -SHRA BR -SHRA BR -SHRA BR -SHRA BR -SHRA BR
WDir 230 230
[230]
230
[230]
230
[230]
230 230 230 230 230 230
WSpd 6 6
  [6]  
6
  [6]  
6
  [6]  
6 6 6 6 6 6
WGst -- --
  [--]  
--
  [--]  
--
  [--]  
-- -- -- -- -- --
Raw TAF
KGPT 220545Z 2206/2306 23009KT P6SM BKN007 OVC100
  FM220700 24006KT P6SM -SHRA OVC008
  FM221200 23006KT 5SM -SHRA BR OVC003
  TEMPO 2221/2224 2SM -RA OVC004


METAR Board
Radar Display
Forecast Discussion
For situational awareness. Not to be used for flight planning purposes.